This is the latest recevied weather packets stored in our database for station/object OK1FET-5. If no packets are shown the sender has not sent any weather packets the latest 1 day(s).
| Time | Temp. | Humidity | Pressure | Rain* | Wind** | Luminosity | Snow |
|---|---|---|---|---|---|---|---|
| 1836274727 | 13.33° C | 100% | 1023.6 hPa | - | 0.45 m/s, 177° | - | - |
| 1836274722 | 13.33° C | 100% | 1023.6 hPa | - | 0.45 m/s, 177° | - | - |
| 1836274566 | 13.33° C | 100% | - | - | 0.45 m/s, 181° | - | - |
| 1836274566 | 13.33° C | 100% | 1023.5 hPa | - | 0.45 m/s, 181° | - | - |
| 1836274561 | 13.33° C | 100% | 1023.5 hPa | - | 0.45 m/s, 181° | - | - |
| 1836274428 | 13.33° C | 99% | 1023.5 hPa | - | 0.45 m/s, 183° | - | - |
| 1836274272 | 13.33° C | 100% | 1023.6 hPa | - | 0.45 m/s, 180° | - | - |
| 1836274272 | - | - | - | - | 0.45 m/s, 180° | - | - |
| 1836274267 | 13.33° C | 100% | 1023.6 hPa | - | 0.45 m/s, 180° | - | - |
| 1836274134 | 13.33° C | 96% | 1023.6 hPa | - | 0.45 m/s, 164° | - | - |
| 1778019649 | 11.67° C | 89% | 1007.1 hPa | - | 1.34 m/s, 329° | - | - |
| 1778019648 | 11.67° C | 89% | 1007.1 hPa | - | 1.34 m/s, 329° | - | - |
| 1778019354 | 11.67° C | 90% | 1007.2 hPa | - | 0.89 m/s, 351° | - | - |
| 1778019060 | 11.67° C | 91% | 1007.2 hPa | - | 1.34 m/s, 356° | - | - |
| 1778018766 | 11.67° C | 93% | 1007.2 hPa | - | 1.79 m/s, 341° | - | - |
| 1778018766 | 11.67° C | 93% | 1007.2 hPa | - | 1.79 m/s, 341° | - | - |
| 1778018472 | 11.67° C | 95% | 1007.1 hPa | - | 1.79 m/s, 328° | - | - |
| 1778018471 | 11.67° C | 95% | 1007.1 hPa | - | 1.79 m/s, 328° | - | - |
| 1778018177 | 11.67° C | 93% | 1007.3 hPa | - | 1.79 m/s, 324° | - | - |
| 1778018177 | 11.67° C | 93% | 1007.3 hPa | - | 1.79 m/s, 324° | - | - |
| 1778017883 | 11.67° C | 92% | 1007.3 hPa | - | 1.79 m/s, 330° | - | - |
| 1778017589 | 11.67° C | 90% | 1007.4 hPa | - | 2.24 m/s, 342° | - | - |
| 1778017295 | 11.67° C | 91% | 1007.5 hPa | - | 1.79 m/s, 328° | - | - |
| 1778017000 | 11.67° C | 92% | 1007.5 hPa | - | 2.24 m/s, 336° | - | - |
| 1778017000 | 11.67° C | 92% | 1007.5 hPa | - | 2.24 m/s, 336° | - | - |
* Rain since midnight (hover to see other rain measurements)
** Current wind speed in m/s (hover to see current wind gust speed)